Time;durP1;ratioP1;P1;durP2;ratioP2;P2;SDS_P1;SDS_P2;PMS_P1;PMS_P2;Temp;Humidity;BMP_temperature;BMP_pressure;BME280_temperature;BME280_humidity;BME280_pressure;Samples;Min_cycle;Max_cycle;Signal;HPM_P1;HPM_P2
2020/12/28 00:00:32;;;;;;;13.35;9.50;;;;;;;0.95;65.55;99889.33;1789430;79;21584;-39
2020/12/28 00:03:00;;;;;;;12.03;8.93;;;;;;;0.96;65.37;99888.26;1790467;79;21159;-39
2020/12/28 00:05:28;;;;;;;15.13;9.58;;;;;;;0.99;65.19;99884.20;1780254;79;21432;-39
2020/12/28 00:07:57;;;;;;;12.53;8.95;;;;;;;1.03;64.90;99883.36;1771580;79;21028;-39
2020/12/28 00:10:25;;;;;;;15.93;9.48;;;;;;;1.08;64.41;99885.17;1772965;79;21154;-38
2020/12/28 00:12:54;;;;;;;12.37;9.10;;;;;;;1.08;64.15;99873.96;1798538;79;21110;-39
2020/12/28 00:15:25;;;;;;;14.00;10.15;;;;;;;1.09;64.16;99875.56;1793265;79;21522;-40
2020/12/28 00:17:56;;;;;;;14.38;9.80;;;;;;;1.14;64.14;99876.84;1784550;79;22028;-40
2020/12/28 00:20:26;;;;;;;16.85;10.15;;;;;;;1.14;64.10;99868.83;1771570;79;21167;-40
2020/12/28 00:22:54;;;;;;;;;;;;;;;1.10;64.04;99872.34;1775079;79;21167;-40
2020/12/28 00:25:24;;;;;;;16.85;9.80;;;;;;;1.09;64.07;99876.89;1783799;79;20278;-40
2020/12/28 00:27:54;;;;;;;14.63;10.15;;;;;;;1.04;64.05;99871.61;1771175;81;21135;-40
2020/12/28 00:30:23;;;;;;;14.65;10.55;;;;;;;1.05;64.05;99869.20;1777299;79;21374;-40
2020/12/28 00:32:51;;;;;;;14.33;10.23;;;;;;;1.11;63.86;99861.39;1783060;79;21078;-40
2020/12/28 00:35:19;;;;;;;18.52;10.90;;;;;;;1.09;63.88;99859.53;1780829;79;21143;-40
2020/12/28 00:37:49;;;;;;;;;;;;;;;1.13;63.83;99862.42;1741367;81;21441;-40
2020/12/28 00:40:17;;;;;;;18.35;11.68;;;;;;;1.14;63.90;99859.48;1758948;81;20267;-40
2020/12/28 00:42:45;;;;;;;20.72;12.03;;;;;;;1.09;64.02;99854.20;1795274;79;21206;-40
2020/12/28 00:45:14;;;;;;;18.20;10.53;;;;;;;1.11;63.71;99857.92;1776194;79;21158;-40
2020/12/28 00:47:42;;;;;;;18.00;10.82;;;;;;;1.12;63.68;99851.48;1794297;78;21134;-40
2020/12/28 00:50:10;;;;;;;15.18;10.68;;;;;;;1.14;63.60;99842.13;1765384;79;21123;-40
2020/12/28 00:52:39;;;;;;;19.12;11.33;;;;;;;1.14;63.61;99839.45;1793374;79;21147;-40
2020/12/28 00:55:07;;;;;;;16.25;10.98;;;;;;;1.15;62.84;99837.05;1791866;79;21386;-40
2020/12/28 00:57:36;;;;;;;18.07;11.00;;;;;;;1.16;63.24;99827.16;1794222;79;20977;-40
2020/12/28 01:00:05;;;;;;;18.52;11.12;;;;;;;1.20;63.10;99838.31;1774366;79;21555;-40
2020/12/28 01:02:48;;;;;;;17.50;12.15;;;;;;;1.21;63.30;99831.11;1833893;77;23343;-39
2020/12/28 01:05:19;;;;;;;15.72;10.63;;;;;;;1.18;63.11;99823.65;1797038;78;21011;-39
2020/12/28 01:07:48;;;;;;;16.93;11.30;;;;;;;1.15;63.06;99829.03;1748011;82;21710;-39
2020/12/28 01:10:32;;;;;;;19.50;12.30;;;;;;;1.24;63.18;99817.97;1821471;78;22653;-39
2020/12/28 01:13:04;;;;;;;;;;;;;;;1.22;63.37;99809.97;1790051;79;20972;-39
2020/12/28 01:15:34;;;;;;;16.97;11.70;;;;;;;1.22;63.30;99802.75;1790098;79;21356;-39
2020/12/28 01:18:03;;;;;;;17.27;11.15;;;;;;;1.11;63.72;99807.99;1804156;79;21597;-39
2020/12/28 01:20:33;;;;;;;19.25;11.80;;;;;;;1.16;63.71;99811.91;1802544;79;21020;-39
2020/12/28 01:23:01;;;;;;;17.32;11.97;;;;;;;1.18;63.45;99799.08;1787774;79;21617;-39
2020/12/28 01:25:31;;;;;;;18.57;12.15;;;;;;;1.20;63.47;99802.27;1788182;79;20996;-39
2020/12/28 01:28:00;;;;;;;19.35;12.40;;;;;;;1.20;63.57;99794.25;1805845;79;21373;-39
2020/12/28 01:30:30;;;;;;;17.77;11.43;;;;;;;1.17;63.76;99785.47;1798877;79;20991;-39
2020/12/28 01:33:01;;;;;;;17.20;10.95;;;;;;;1.10;63.47;99794.92;1783462;79;21000;-39
2020/12/28 01:35:31;;;;;;;17.65;11.55;;;;;;;1.12;63.80;99788.73;1782818;79;21052;-39
2020/12/28 01:38:00;;;;;;;21.50;12.30;;;;;;;1.09;63.83;99780.77;1794430;79;21114;-39
2020/12/28 01:40:33;;;;;;;17.92;12.37;;;;;;;1.11;64.14;99781.30;1802792;79;22283;-39
2020/12/28 01:43:02;;;;;;;20.20;11.93;;;;;;;1.10;64.05;99771.69;1788236;79;21554;-39
2020/12/28 01:45:31;;;;;;;18.62;12.18;;;;;;;1.11;64.14;99771.95;1800813;79;21401;-39
2020/12/28 01:48:01;;;;;;;;;;;;;;;1.12;64.20;99766.84;1795636;79;21142;-39
2020/12/28 01:50:30;;;;;;;17.02;11.12;;;;;;;1.16;64.33;99761.73;1777663;79;20229;-39
2020/12/28 01:53:01;;;;;;;17.98;12.13;;;;;;;1.09;64.41;99756.73;1801653;79;21389;-39
2020/12/28 01:55:31;;;;;;;17.25;11.57;;;;;;;1.08;64.65;99751.14;1778954;79;21154;-39
2020/12/28 01:58:01;;;;;;;19.35;11.57;;;;;;;1.12;64.37;99752.69;1785755;79;21000;-39
2020/12/28 02:00:30;;;;;;;16.77;12.35;;;;;;;1.13;64.46;99747.06;1777842;79;20996;-39
2020/12/28 02:03:02;;;;;;;20.23;12.45;;;;;;;1.17;64.36;99758.76;1786291;79;21122;-39
2020/12/28 02:05:36;;;;;;;19.15;12.07;;;;;;;1.15;64.24;99746.25;1797377;79;21193;-39
2020/12/28 02:08:05;;;;;;;16.23;11.33;;;;;;;1.18;64.34;99739.53;1799684;79;21138;-39
2020/12/28 02:10:34;;;;;;;17.47;11.33;;;;;;;1.18;64.29;99730.19;1786036;79;21569;-39
2020/12/28 02:13:03;;;;;;;17.95;11.57;;;;;;;1.24;64.28;99732.50;1783011;79;21150;-39
2020/12/28 02:15:33;;;;;;;20.65;11.50;;;;;;;1.22;64.21;99721.84;1766690;79;21134;-39
2020/12/28 02:18:20;;;;;;;18.00;11.55;;;;;;;1.24;64.29;99711.14;1804704;77;21490;-39
2020/12/28 02:21:04;;;;;;;17.60;10.85;;;;;;;1.20;64.13;99712.80;1835823;78;22654;-39
2020/12/28 02:23:32;;;;;;;16.85;11.28;;;;;;;1.20;64.13;99712.80;1748480;82;21615;-39
2020/12/28 02:26:01;;;;;;;15.98;11.05;;;;;;;1.17;64.44;99712.56;1717788;81;21175;-39
2020/12/28 02:28:29;;;;;;;15.00;10.63;;;;;;;1.16;64.49;99717.11;1765686;79;21201;-39
2020/12/28 02:30:58;;;;;;;17.25;11.48;;;;;;;1.19;64.62;99711.21;1774903;80;21560;-39
2020/12/28 02:33:45;;;;;;;16.45;10.95;;;;;;;1.19;64.50;99717.89;1838999;76;22084;-39
2020/12/28 02:36:19;;;;;;;15.48;10.45;;;;;;;1.17;64.74;99713.36;1811236;77;21056;-39
2020/12/28 02:38:47;;;;;;;17.60;11.15;;;;;;;1.17;64.52;99721.38;1816585;77;21618;-39
2020/12/28 02:41:16;;;;;;;18.30;12.18;;;;;;;1.20;64.80;99721.36;1784802;77;21916;-39
2020/12/28 02:44:03;;;;;;;15.55;10.30;;;;;;;1.22;64.84;99721.84;1754577;80;21015;-39
2020/12/28 02:46:49;;;;;;;18.07;10.95;;;;;;;1.22;64.59;99722.64;1750745;80;21028;-39
2020/12/28 02:49:36;;;;;;;17.73;10.38;;;;;;;1.23;64.79;99721.56;1784864;79;21036;-39
2020/12/28 02:52:23;;;;;;;16.52;10.45;;;;;;;1.26;64.69;99711.63;1775898;79;21372;-39
2020/12/28 02:55:11;;;;;;;15.48;10.10;;;;;;;1.27;64.58;99718.56;1752224;79;21048;-39
2020/12/28 02:57:58;;;;;;;14.75;10.38;;;;;;;1.28;64.54;99711.34;1769660;80;21055;-41
2020/12/28 03:00:45;;;;;;;15.72;10.60;;;;;;;1.24;64.67;99704.46;1771394;80;21158;-39
2020/12/28 03:03:32;;;;;;;18.60;10.05;;;;;;;1.24;64.74;99700.45;1760380;80;21091;-39
2020/12/28 03:06:19;;;;;;;16.57;10.68;;;;;;;1.21;64.64;99695.67;1753031;80;21436;-39
2020/12/28 03:09:06;;;;;;;18.48;11.08;;;;;;;1.22;64.93;99687.92;1779176;79;21031;-39
2020/12/28 03:11:54;;;;;;;18.05;10.68;;;;;;;1.18;65.10;99678.91;1763495;80;21186;-39
2020/12/28 03:14:40;;;;;;;17.95;11.03;;;;;;;1.18;65.26;99682.91;1748605;80;21102;-39
2020/12/28 03:17:27;;;;;;;18.92;10.15;;;;;;;1.17;65.12;99675.18;1766297;80;21103;-39
2020/12/28 03:20:13;;;;;;;16.45;10.18;;;;;;;1.14;65.14;99668.56;1754811;81;21284;-40
2020/12/28 03:22:51;;;;;;;15.48;10.08;;;;;;;1.18;65.43;99678.91;1812809;78;22800;-39
2020/12/28 03:25:39;;;;;;;15.08;10.43;;;;;;;1.18;65.43;99678.91;1789730;78;21000;-39
2020/12/28 03:28:26;;;;;;;17.87;10.63;;;;;;;1.17;65.12;99681.32;1789876;78;21432;-39
2020/12/28 03:31:12;;;;;;;16.02;11.03;;;;;;;1.14;65.31;99660.55;1792981;78;21585;-39
2020/12/28 03:34:00;;;;;;;17.25;12.23;;;;;;;1.13;65.25;99672.30;1795504;78;21019;-39
2020/12/28 03:36:46;;;;;;;15.45;11.08;;;;;;;1.18;65.23;99670.10;1804692;78;21007;-39
2020/12/28 03:39:33;;;;;;;19.65;10.90;;;;;;;1.18;65.24;99665.56;1789444;78;20984;-39
2020/12/28 03:42:20;;;;;;;18.70;11.25;;;;;;;1.18;64.99;99662.09;1785823;78;22203;-39
2020/12/28 03:45:07;;;;;;;18.48;11.25;;;;;;;1.16;65.36;99655.69;1792064;78;21019;-39
2020/12/28 03:47:53;;;;;;;18.67;11.70;;;;;;;1.15;65.44;99645.33;1793690;78;21063;-39
2020/12/28 03:50:43;;;;;;;19.62;11.50;;;;;;;1.18;65.56;99654.08;1800290;78;21589;-39
2020/12/28 03:53:29;;;;;;;17.37;11.40;;;;;;;1.16;65.69;99648.25;1751826;80;21154;-39
2020/12/28 03:56:19;;;;;;;17.55;11.22;;;;;;;1.10;65.68;99634.18;1756460;80;21223;-39
2020/12/28 03:59:06;;;;;;;19.17;11.83;;;;;;;1.10;65.92;99639.52;1733008;81;22060;-39
2020/12/28 04:01:52;;;;;;;18.80;12.00;;;;;;;1.09;66.13;99635.26;1749023;81;21174;-39
2020/12/28 04:04:40;;;;;;;18.92;11.75;;;;;;;1.11;66.36;99630.97;1758662;80;21142;-38
2020/12/28 04:07:29;;;;;;;23.12;12.63;;;;;;;1.07;66.65;99620.06;1752599;81;21130;-39
2020/12/28 04:10:15;;;;;;;20.32;11.95;;;;;;;1.06;66.60;99629.17;1750123;81;21406;-39
2020/12/28 04:12:54;;;;;;;20.68;12.18;;;;;;;1.10;66.33;99618.70;1772987;80;21024;-39
2020/12/28 04:15:23;;;;;;;14.70;9.65;;;;;;;1.10;66.49;99623.50;1756510;80;21626;-39
2020/12/28 04:17:53;;;;;;;18.45;12.07;;;;;;;1.12;66.45;99609.84;1745945;81;21023;-39
2020/12/28 04:20:22;;;;;;;19.77;12.37;;;;;;;1.08;66.67;99596.28;1760579;81;21134;-39
2020/12/28 04:22:50;;;;;;;18.37;12.28;;;;;;;1.05;67.07;99595.55;1741337;81;21210;-39
2020/12/28 04:25:19;;;;;;;22.17;12.50;;;;;;;0.95;67.92;99604.24;1776312;79;21103;-39
2020/12/28 04:27:47;;;;;;;19.67;12.58;;;;;;;0.96;68.21;99599.95;1781554;79;21422;-39
2020/12/28 04:30:16;;;;;;;19.23;12.25;;;;;;;0.97;67.95;99586.84;1781543;80;21198;-38
2020/12/28 04:32:44;;;;;;;16.87;11.78;;;;;;;0.96;68.17;99593.83;1781219;80;21142;-39
2020/12/28 04:35:12;;;;;;;20.23;12.43;;;;;;;1.00;67.85;99604.17;1780759;80;21376;-39
2020/12/28 04:37:42;;;;;;;;;;;;;;;0.98;67.93;99596.44;1781997;80;20980;-39
2020/12/28 04:40:10;;;;;;;20.25;12.37;;;;;;;1.00;67.61;99582.27;1780978;79;20145;-39
2020/12/28 04:42:42;;;;;;;18.05;11.30;;;;;;;0.92;67.94;99585.58;1761926;80;21122;-39
2020/12/28 04:45:11;;;;;;;17.10;11.55;;;;;;;0.98;67.72;99586.30;1743888;82;21106;-39
2020/12/28 04:47:40;;;;;;;17.20;11.75;;;;;;;1.01;67.75;99597.22;1762680;80;21281;-39
2020/12/28 04:50:08;;;;;;;19.57;11.45;;;;;;;1.04;67.71;99595.83;1778646;80;21634;-39
2020/12/28 04:52:36;;;;;;;19.32;10.88;;;;;;;1.07;67.59;99595.23;1753300;80;21150;-39
2020/12/28 04:55:06;;;;;;;20.08;12.68;;;;;;;1.10;67.52;99591.46;1772148;80;21008;-39
2020/12/28 04:57:34;;;;;;;15.65;10.82;;;;;;;1.11;67.39;99578.37;1780519;80;21174;-39
2020/12/28 05:00:04;;;;;;;17.73;12.25;;;;;;;1.13;67.26;99593.54;1764101;80;21277;-39
2020/12/28 05:02:32;;;;;;;16.07;9.58;;;;;;;1.15;67.36;99587.92;1762436;80;21169;-39
2020/12/28 05:05:08;;;;;;;19.05;11.20;;;;;;;1.16;66.98;99594.84;1766546;80;21151;-39
2020/12/28 05:07:37;;;;;;;16.20;11.53;;;;;;;1.14;66.97;99603.68;1773658;80;21170;-39
2020/12/28 05:10:06;;;;;;;16.90;10.98;;;;;;;1.13;66.81;99597.55;1768354;80;21143;-39
2020/12/28 05:12:34;;;;;;;18.02;10.95;;;;;;;1.10;67.03;99596.80;1779846;80;21419;-39
2020/12/28 05:15:08;;;;;;;19.90;10.95;;;;;;;1.12;66.80;99585.81;1770814;79;21013;-39
2020/12/28 05:17:37;;;;;;;17.73;10.55;;;;;;;1.14;66.72;99584.98;1715175;83;21146;-39
2020/12/28 05:20:05;;;;;;;19.15;10.93;;;;;;;1.15;66.50;99596.72;1763924;80;21397;-39
2020/12/28 05:22:33;;;;;;;18.82;10.53;;;;;;;1.17;66.35;99595.08;1773533;78;21194;-39
2020/12/28 05:25:02;;;;;;;18.32;10.53;;;;;;;1.17;66.27;99605.22;1774357;79;21334;-39
2020/12/28 05:27:30;;;;;;;16.57;10.90;;;;;;;1.18;66.08;99602.80;1779528;79;21141;-39
2020/12/28 05:29:58;;;;;;;15.68;10.08;;;;;;;1.17;66.15;99603.88;1778689;79;21160;-39
2020/12/28 05:32:26;;;;;;;17.27;10.88;;;;;;;1.17;66.23;99601.21;1720162;80;21565;-39
2020/12/28 05:34:55;;;;;;;17.30;11.03;;;;;;;1.13;66.24;99608.77;1780892;79;21177;-39
2020/12/28 05:37:23;;;;;;;17.17;10.68;;;;;;;1.14;66.19;99612.48;1781706;79;21191;-39
2020/12/28 05:39:51;;;;;;;21.07;11.70;;;;;;;1.18;66.11;99609.48;1767462;79;21146;-39
2020/12/28 05:42:20;;;;;;;16.30;10.45;;;;;;;1.19;66.07;99601.73;1786606;79;21028;-39
2020/12/28 05:44:48;;;;;;;18.73;10.43;;;;;;;1.20;65.82;99601.98;1780647;79;21189;-39
2020/12/28 05:47:18;;;;;;;18.00;10.70;;;;;;;1.20;66.02;99604.66;1777325;79;21157;-39
2020/12/28 05:49:49;;;;;;;19.73;11.65;;;;;;;1.16;66.04;99598.28;1775320;79;21271;-39
2020/12/28 05:52:18;;;;;;;19.42;10.80;;;;;;;1.17;66.17;99601.21;1749378;80;21067;-39
2020/12/28 05:54:46;;;;;;;19.70;11.28;;;;;;;1.15;66.04;99598.06;1773450;79;21028;-39
2020/12/28 05:57:15;;;;;;;17.73;11.15;;;;;;;1.13;66.19;99597.55;1777816;79;21200;-39
2020/12/28 05:59:43;;;;;;;17.92;10.55;;;;;;;1.18;66.20;99589.45;1769765;79;21162;-39
2020/12/28 06:04:01;;;;;;;15.32;10.15;;;;;;;1.20;65.79;99576.61;1823242;77;22775;-39
2020/12/28 06:06:29;;;;;;;20.90;11.18;;;;;;;1.13;65.84;99594.88;1785801;78;21027;-39
2020/12/28 06:09:00;;;;;;;17.60;10.45;;;;;;;1.16;65.95;99591.61;1783947;80;21424;-39
2020/12/28 06:11:29;;;;;;;18.20;10.65;;;;;;;1.16;65.75;99580.92;1764845;80;21114;-39
2020/12/28 06:13:57;;;;;;;18.23;10.58;;;;;;;1.17;65.74;99576.38;1760900;80;20968;-39
2020/12/28 06:16:26;;;;;;;21.55;10.95;;;;;;;1.15;65.97;99575.36;1775337;80;21020;-39
2020/12/28 06:18:56;;;;;;;18.30;11.48;;;;;;;1.18;65.75;99575.30;1720414;81;21009;-39
2020/12/28 06:21:37;;;;;;;16.60;10.45;;;;;;;1.22;65.52;99569.63;1762238;80;22293;-39
2020/12/28 06:24:06;;;;;;;17.55;10.90;;;;;;;1.17;65.54;99565.16;1732978;80;21007;-39
2020/12/28 06:26:34;;;;;;;16.48;10.45;;;;;;;1.17;65.48;99557.16;1747736;82;21019;-39
2020/12/28 06:29:07;;;;;;;20.10;11.60;;;;;;;1.19;65.63;99552.86;1751831;80;21191;-39
2020/12/28 06:31:35;;;;;;;14.83;10.70;;;;;;;1.19;65.73;99550.98;1739958;81;21134;-39
2020/12/28 06:34:04;;;;;;;17.30;10.90;;;;;;;1.14;65.87;99539.06;1750052;80;21207;-39
2020/12/28 06:36:32;;;;;;;16.20;10.98;;;;;;;1.14;66.36;99554.28;1740178;81;21008;-39
2020/12/28 06:39:02;;;;;;;15.98;10.20;;;;;;;1.16;66.27;99564.14;1717655;82;21198;-39
2020/12/28 06:41:32;;;;;;;17.42;11.35;;;;;;;1.17;66.31;99557.16;1730366;82;21141;-39
2020/12/28 06:44:02;;;;;;;19.10;11.35;;;;;;;0.82;66.26;99504.36;1738192;81;21166;-39
2020/12/28 06:46:31;;;;;;;13.80;8.20;;;;;;;1.20;66.64;99550.45;1744173;81;21204;-39
2020/12/28 06:48:59;;;;;;;17.05;10.82;;;;;;;1.23;66.60;99549.31;1746386;81;21011;-39
2020/12/28 06:51:28;;;;;;;18.37;10.97;;;;;;;1.21;66.66;99546.13;1729005;81;21040;-39
2020/12/28 06:53:57;;;;;;;16.25;10.85;;;;;;;1.24;66.93;99536.22;1745479;81;21171;-39
2020/12/28 06:56:26;;;;;;;17.37;10.90;;;;;;;1.24;66.96;99525.53;1755821;81;21458;-40
2020/12/28 06:59:01;;;;;;;17.70;10.88;;;;;;;1.23;66.84;99514.59;1746743;81;21499;-39
2020/12/28 07:01:29;;;;;;;17.05;11.12;;;;;;;1.17;67.15;99510.42;1725637;83;21712;-40
2020/12/28 07:03:58;;;;;;;17.55;11.28;;;;;;;1.16;67.08;99511.50;1730415;81;21031;-40
2020/12/28 07:06:26;;;;;;;19.35;11.15;;;;;;;1.16;67.08;99523.52;1721556;82;21172;-40
2020/12/28 07:09:08;;;;;;;16.15;10.60;;;;;;;1.20;67.15;99533.89;1733069;82;21131;-40
2020/12/28 07:11:36;;;;;;;;;;;;;;;1.28;67.00;99529.73;1762122;80;21214;-41
2020/12/28 07:14:06;;;;;;;17.45;10.25;;;;;;;1.29;66.98;99521.98;1766939;80;20282;-40
2020/12/28 07:16:35;;;;;;;17.40;10.58;;;;;;;1.19;66.90;99517.61;1767381;80;21150;-40
2020/12/28 07:19:04;;;;;;;17.13;10.73;;;;;;;1.19;67.05;99504.26;1763301;79;21158;-40
2020/12/28 07:21:33;;;;;;;16.65;10.40;;;;;;;1.19;66.93;99502.12;1747630;82;21153;-40
2020/12/28 07:24:03;;;;;;;17.95;9.80;;;;;;;1.20;66.96;99524.55;1735606;81;23531;-40
2020/12/28 07:26:31;;;;;;;18.70;10.55;;;;;;;1.24;66.82;99510.85;1704715;82;21754;-40
2020/12/28 07:28:59;;;;;;;16.45;10.08;;;;;;;1.25;66.95;99520.98;1736298;82;21126;-40
2020/12/28 07:31:28;;;;;;;14.87;9.28;;;;;;;1.27;66.68;99519.59;1740105;81;21146;-40
2020/12/28 07:33:59;;;;;;;21.02;10.50;;;;;;;1.25;66.93;99524.45;1738284;82;21019;-40
2020/12/28 07:36:28;;;;;;;13.75;9.85;;;;;;;1.29;66.74;99521.44;1740581;81;21321;-40
2020/12/28 07:38:56;;;;;;;16.73;10.48;;;;;;;1.35;66.72;99524.82;1733065;82;21455;-40
2020/12/28 07:41:24;;;;;;;20.75;10.48;;;;;;;1.41;66.71;99518.81;1715035;83;21401;-40
2020/12/28 07:43:57;;;;;;;14.47;9.03;;;;;;;1.48;66.43;99513.89;1729615;82;21150;-41
2020/12/28 07:46:35;;;;;;;;;;;;;;;1.51;66.39;99523.98;1744530;81;21189;-40
2020/12/28 07:49:17;;;;;;;17.30;9.50;;;;;;;1.54;66.41;99531.42;1745428;82;23533;-40
2020/12/28 07:51:55;;;;;;;16.23;9.78;;;;;;;1.46;66.43;99522.73;1738236;82;21152;-40
2020/12/28 07:54:23;;;;;;;18.45;11.05;;;;;;;1.51;66.39;99529.33;1740766;82;21027;-40
2020/12/28 07:56:58;;;;;;;15.43;10.23;;;;;;;1.57;66.38;99527.61;1743242;82;21046;-40
2020/12/28 07:59:44;;;;;;;17.92;10.60;;;;;;;1.60;66.09;99544.91;1743031;82;21593;-41
2020/12/28 08:02:39;;;;;;;18.32;10.90;;;;;;;1.60;66.29;99536.36;1732501;82;21475;-40
2020/12/28 08:05:09;;;;;;;17.05;10.50;;;;;;;1.63;66.44;99523.76;1776124;80;21151;-40
2020/12/28 08:07:37;;;;;;;14.30;8.55;;;;;;;1.62;66.22;99495.98;1740813;82;21158;-40
2020/12/28 08:10:08;;;;;;;20.12;11.30;;;;;;;1.69;66.31;99499.07;1737957;82;21147;-41
2020/12/28 08:12:41;;;;;;;21.30;10.55;;;;;;;1.72;66.21;99503.81;1731996;82;21173;-40
2020/12/28 08:15:09;;;;;;;19.07;10.98;;;;;;;1.77;66.17;99483.66;1731391;82;21275;-40
2020/12/28 08:17:37;;;;;;;21.82;11.68;;;;;;;1.81;66.08;99484.65;1767279;80;21174;-40
2020/12/28 08:20:14;;;;;;;18.25;11.60;;;;;;;1.83;65.73;99497.19;1732147;82;21171;-40
2020/12/28 08:22:46;;;;;;;16.70;10.03;;;;;;;1.84;65.74;99478.70;1759406;80;21036;-40
2020/12/28 08:25:14;;;;;;;19.40;10.75;;;;;;;1.87;65.88;99483.47;1691343;80;21199;-40
2020/12/28 08:27:42;;;;;;;22.80;11.10;;;;;;;1.89;65.96;99475.16;1748046;82;21253;-40
2020/12/28 08:30:11;;;;;;;20.45;11.78;;;;;;;1.88;65.96;99470.89;1702129;82;21246;-40
2020/12/28 08:32:40;;;;;;;19.02;11.38;;;;;;;1.90;65.91;99468.16;1759900;80;20977;-41
2020/12/28 08:35:10;;;;;;;16.23;10.40;;;;;;;1.91;65.86;99463.05;1774075;80;21062;-40
2020/12/28 08:37:50;;;;;;;21.60;12.15;;;;;;;1.93;65.88;99456.88;1782710;80;21031;-41
2020/12/28 08:40:20;;;;;;;21.45;12.25;;;;;;;1.95;65.93;99452.55;1747557;80;21434;-40
2020/12/28 08:42:55;;;;;;;16.23;10.82;;;;;;;1.90;66.10;99440.08;1752180;80;21175;-40
2020/12/28 08:45:25;;;;;;;18.25;10.95;;;;;;;1.88;66.13;99428.91;1768230;80;21162;-38
2020/12/28 08:47:57;;;;;;;20.90;12.37;;;;;;;1.82;66.14;99431.44;1765149;80;21438;-38
2020/12/28 08:50:27;;;;;;;;;;;;;;;1.74;66.43;99406.77;1767727;80;21601;-38
2020/12/28 08:52:57;;;;;;;21.20;10.55;;;;;;;1.73;66.53;99408.64;1769816;80;22084;-38
2020/12/28 08:55:26;;;;;;;17.32;10.55;;;;;;;1.64;66.78;99415.79;1721958;82;21188;-38
2020/12/28 08:57:58;;;;;;;19.55;12.15;;;;;;;1.67;66.89;99423.73;1762260;80;21600;-38
2020/12/28 09:00:27;;;;;;;18.20;10.70;;;;;;;1.68;67.14;99423.99;1756681;80;21610;-38
2020/12/28 09:02:57;;;;;;;;;;;;;;;1.75;66.95;99427.03;1725448;82;21228;-38
2020/12/28 09:05:29;;;;;;;20.05;11.08;;;;;;;1.79;66.86;99427.25;1707340;82;21374;-38
2020/12/28 09:07:58;;;;;;;17.90;10.70;;;;;;;1.75;67.06;99437.73;1714292;82;21065;-38
2020/12/28 09:10:26;;;;;;;20.20;11.25;;;;;;;1.80;67.15;99424.80;1753502;81;21005;-38
2020/12/28 09:12:55;;;;;;;19.70;11.10;;;;;;;1.87;66.95;99428.66;1755352;81;21191;-38
2020/12/28 09:15:23;;;;;;;19.32;11.18;;;;;;;1.95;66.82;99429.28;1752020;81;21724;-38
2020/12/28 09:17:51;;;;;;;20.52;11.68;;;;;;;2.01;66.68;99427.30;1738648;81;23516;-38
2020/12/28 09:20:20;;;;;;;17.98;10.70;;;;;;;2.03;66.47;99424.55;1730383;81;21139;-38
2020/12/28 09:22:49;;;;;;;18.55;10.55;;;;;;;2.03;66.47;99401.05;1722260;83;21573;-38
2020/12/28 09:25:19;;;;;;;16.42;10.30;;;;;;;2.02;66.53;99414.97;1727655;83;21020;-38
2020/12/28 09:27:55;;;;;;;19.90;11.25;;;;;;;2.00;66.67;99406.45;1728118;82;21621;-38
2020/12/28 09:30:23;;;;;;;22.52;11.78;;;;;;;1.96;66.61;99404.13;1755980;81;21098;-38
2020/12/28 09:32:53;;;;;;;18.80;11.05;;;;;;;1.96;66.76;99406.81;1757731;81;21158;-38
2020/12/28 09:35:22;;;;;;;;;;;;;;;1.97;66.72;99396.91;1771197;81;21123;-38
2020/12/28 09:37:54;;;;;;;17.92;10.55;;;;;;;1.98;66.84;99385.92;1746137;81;20219;-38
2020/12/28 09:40:22;;;;;;;21.62;11.12;;;;;;;1.91;66.93;99384.20;1741633;80;21182;-38
2020/12/28 09:42:51;;;;;;;22.25;11.35;;;;;;;1.92;67.01;99400.48;1754408;80;21197;-38
2020/12/28 09:45:37;;;;;;;17.87;10.88;;;;;;;1.93;67.09;99386.03;1761756;81;21143;-38
2020/12/28 09:48:06;;;;;;;19.02;10.78;;;;;;;1.99;67.13;99380.00;1760813;80;21163;-38
2020/12/28 09:50:37;;;;;;;17.48;10.82;;;;;;;1.99;67.09;99383.47;1746666;80;21073;-38
2020/12/28 09:53:07;;;;;;;20.30;10.90;;;;;;;2.00;67.18;99362.88;1763041;81;21117;-38
2020/12/28 09:55:35;;;;;;;17.60;10.48;;;;;;;2.00;67.18;99358.86;1749164;81;21382;-38
2020/12/28 09:58:03;;;;;;;20.00;11.05;;;;;;;1.98;67.29;99350.37;1754370;80;21191;-38
2020/12/28 10:00:32;;;;;;;20.60;10.80;;;;;;;1.98;67.41;99364.53;1763362;81;21185;-38
2020/12/28 10:03:00;;;;;;;18.57;10.85;;;;;;;2.00;67.67;99365.00;1762056;80;21834;-39
2020/12/28 10:05:29;;;;;;;19.45;11.10;;;;;;;2.01;68.82;99355.89;1761553;79;21092;-38
2020/12/28 10:07:57;;;;;;;17.17;11.00;;;;;;;2.03;69.04;99356.36;1758676;80;21439;-38
2020/12/28 10:10:25;;;;;;;18.37;10.23;;;;;;;1.69;69.18;99298.07;1774185;80;21209;-38
2020/12/28 10:12:54;;;;;;;16.42;11.15;;;;;;;2.02;69.15;99343.31;1768328;80;21574;-38
2020/12/28 10:15:23;;;;;;;17.20;11.10;;;;;;;1.97;69.29;99338.88;1740398;82;21174;-39
2020/12/28 10:18:19;;;;;;;;;;;;;;;1.89;69.51;99326.22;1766756;80;21135;-40
2020/12/28 10:20:47;;;;;;;18.98;10.80;;;;;;;1.85;69.84;99322.58;1778628;80;21438;-40
2020/12/28 10:23:15;;;;;;;18.60;11.35;;;;;;;1.74;70.31;99323.92;1776006;80;21127;-40
2020/12/28 10:25:45;;;;;;;13.53;9.67;;;;;;;1.73;70.34;99316.98;1779733;80;20996;-40
2020/12/28 10:28:13;;;;;;;21.23;11.70;;;;;;;1.73;70.50;99300.95;1764411;80;21183;-39
2020/12/28 10:30:44;;;;;;;18.55;11.90;;;;;;;1.76;70.83;99297.66;1745453;80;21195;-40
2020/12/28 10:33:12;;;;;;;;;;;;;;;1.74;71.34;99286.50;1771628;80;21196;-40
2020/12/28 10:35:41;;;;;;;20.20;11.88;;;;;;;1.73;71.31;99274.23;1779483;80;20290;-41
2020/12/28 10:38:10;;;;;;;15.78;10.18;;;;;;;1.72;71.36;99276.11;1777378;80;21104;-40
2020/12/28 10:40:46;;;;;;;21.00;13.18;;;;;;;1.75;71.32;99257.33;1779444;80;21161;-40
2020/12/28 10:43:17;;;;;;;23.65;12.70;;;;;;;1.72;71.37;99268.09;1747878;80;21127;-40
2020/12/28 10:45:47;;;;;;;18.70;12.35;;;;;;;1.74;71.34;99268.56;1770614;80;22306;-40
2020/12/28 10:48:16;;;;;;;20.88;12.73;;;;;;;1.85;71.27;99266.44;1757456;80;21199;-40
2020/12/28 10:50:44;;;;;;;23.55;14.18;;;;;;;1.88;71.31;99252.48;1766472;80;21162;-40
2020/12/28 10:53:12;;;;;;;17.87;11.70;;;;;;;1.79;71.51;99233.48;1758565;80;21169;-40
2020/12/28 10:55:45;;;;;;;18.87;12.20;;;;;;;1.75;71.93;99242.62;1768979;80;20989;-40
2020/12/28 10:58:13;;;;;;;23.42;13.53;;;;;;;1.82;72.25;99242.22;1763181;80;22335;-42
2020/12/28 11:00:42;;;;;;;19.12;12.37;;;;;;;1.80;72.36;99227.80;1775470;79;21166;-40
2020/12/28 11:03:10;;;;;;;20.45;12.82;;;;;;;1.76;72.86;99221.50;1761436;80;21116;-40
2020/12/28 11:05:39;;;;;;;21.93;14.40;;;;;;;1.78;73.13;99212.64;1754724;80;21134;-40
2020/12/28 11:08:08;;;;;;;23.70;14.35;;;;;;;1.83;73.07;99205.83;1746061;82;21206;-40
2020/12/28 11:10:37;;;;;;;24.43;14.45;;;;;;;1.83;72.93;99216.52;1746374;82;21405;-40
2020/12/28 11:13:06;;;;;;;23.07;14.38;;;;;;;1.78;73.19;99217.98;1751469;80;21036;-40
2020/12/28 11:15:35;;;;;;;28.35;15.40;;;;;;;1.82;73.19;99228.30;1767022;80;21174;-40
2020/12/28 11:18:08;;;;;;;26.52;16.50;;;;;;;1.85;73.11;99248.27;1742504;80;21184;-40
2020/12/28 11:20:37;;;;;;;26.37;16.02;;;;;;;1.84;73.07;99256.84;1770717;80;21555;-40
2020/12/28 11:23:05;;;;;;;25.70;15.45;;;;;;;1.87;72.97;99262.94;1745744;80;21408;-40
2020/12/28 11:25:35;;;;;;;28.83;17.05;;;;;;;1.93;72.78;99260.38;1743571;80;21179;-40
2020/12/28 11:28:03;;;;;;;26.12;16.37;;;;;;;1.96;72.55;99249.07;1746015;81;21367;-40
2020/12/28 11:30:32;;;;;;;29.40;17.63;;;;;;;1.96;72.54;99253.63;1749284;81;21154;-40
2020/12/28 11:33:01;;;;;;;30.77;16.95;;;;;;;1.91;72.69;99238.50;1748106;80;21399;-40
2020/12/28 11:35:31;;;;;;;29.40;17.50;;;;;;;1.89;72.88;99244.69;1757999;80;21210;-40
2020/12/28 11:38:01;;;;;;;30.85;18.42;;;;;;;1.95;72.75;99242.14;1746189;82;21055;-40
2020/12/28 11:40:29;;;;;;;26.20;16.17;;;;;;;1.92;72.84;99245.44;1746322;82;21166;-40
2020/12/28 11:42:58;;;;;;;27.20;16.20;;;;;;;1.91;72.92;99262.56;1743376;81;21064;-40
2020/12/28 11:45:28;;;;;;;28.62;17.32;;;;;;;1.99;72.74;99259.14;1742249;81;21169;-40
2020/12/28 11:47:56;;;;;;;30.82;17.90;;;;;;;2.04;72.61;99237.63;1759055;81;21446;-40
2020/12/28 11:50:24;;;;;;;31.27;17.65;;;;;;;2.04;72.49;99232.28;1764211;81;21415;-40
2020/12/28 11:52:54;;;;;;;34.63;19.20;;;;;;;2.02;72.49;99227.02;1755949;81;21199;-40